createdAt,value
2022-12-19T00:00:49.161Z,0
2022-12-19T00:01:50.115Z,0
2022-12-19T00:02:53.186Z,0
2022-12-19T00:03:49.715Z,0
2022-12-19T00:04:49.591Z,0
2022-12-19T00:05:49.229Z,0
2022-12-19T00:06:50.739Z,0
2022-12-19T00:07:49.507Z,0
2022-12-19T00:08:49.822Z,0
2022-12-19T00:09:49.268Z,0
2022-12-19T00:10:51.578Z,0
2022-12-19T00:11:49.559Z,0
2022-12-19T00:12:49.558Z,0
2022-12-19T00:13:49.336Z,0
2022-12-19T00:14:49.584Z,0
2022-12-19T00:15:49.876Z,0
2022-12-19T00:16:50.967Z,0
2022-12-19T00:17:49.869Z,0
2022-12-19T00:18:49.634Z,0
2022-12-19T00:19:49.401Z,0
2022-12-19T00:20:50.025Z,0
2022-12-19T00:21:49.668Z,0
2022-12-19T00:22:52.197Z,0
2022-12-19T00:23:49.950Z,0
2022-12-19T00:24:49.965Z,0
2022-12-19T00:25:51.183Z,0
2022-12-19T00:26:50.414Z,0
2022-12-19T00:27:49.733Z,0
2022-12-19T00:28:49.486Z,0
2022-12-19T00:29:50.025Z,0
2022-12-19T00:30:50.089Z,0
2022-12-19T00:31:50.182Z,0
2022-12-19T00:32:49.792Z,0
2022-12-19T00:33:50.865Z,0
2022-12-19T00:34:49.822Z,0
2022-12-19T00:35:49.571Z,0
2022-12-19T00:36:50.238Z,0
2022-12-19T00:37:56.647Z,0
2022-12-19T00:38:50.241Z,0
2022-12-19T00:39:50.118Z,0
2022-12-19T00:40:49.891Z,0
2022-12-19T00:41:49.896Z,0
2022-12-19T00:42:57.784Z,0
2022-12-19T00:43:49.661Z,0
2022-12-19T00:44:50.194Z,0
2022-12-19T00:45:50.359Z,0
2022-12-19T00:46:57.470Z,0
2022-12-19T00:47:49.970Z,0
2022-12-19T00:48:49.726Z,0
2022-12-19T00:49:53.741Z,0
2022-12-19T00:50:50.261Z,0
2022-12-19T00:51:50.263Z,0
2022-12-19T00:52:50.404Z,0
2022-12-19T00:53:50.860Z,0
2022-12-19T00:54:56.558Z,0
2022-12-19T00:55:50.436Z,0
2022-12-19T00:56:50.324Z,0
2022-12-19T00:57:50.076Z,0
2022-12-19T00:58:54.325Z,0
2022-12-19T00:59:50.090Z,0
2022-12-19T01:00:50.704Z,0
2022-12-19T01:01:51.478Z,0
2022-12-19T01:02:50.885Z,0
2022-12-19T01:04:44.079Z,0
2022-12-19T01:04:53.681Z,0
2022-12-19T01:05:55.171Z,0
2022-12-19T01:06:54.585Z,0
2022-12-19T01:07:54.342Z,0
2022-12-19T01:08:54.228Z,0
2022-12-19T01:09:56.185Z,0
2022-12-19T01:10:54.108Z,0
2022-12-19T01:11:54.268Z,0
2022-12-19T01:12:54.022Z,0
2022-12-19T01:13:53.768Z,0
2022-12-19T01:14:54.298Z,0
2022-12-19T01:15:54.047Z,0
2022-12-19T01:16:54.375Z,0
2022-12-19T01:17:53.829Z,0
2022-12-19T01:18:54.077Z,0
2022-12-19T01:19:54.352Z,0
2022-12-19T01:20:54.147Z,0
2022-12-19T01:21:55.880Z,0
2022-12-19T01:22:54.122Z,0
2022-12-19T01:24:00.084Z,0
2022-12-19T01:24:54.533Z,0
2022-12-19T01:25:54.438Z,0
2022-12-19T01:26:54.596Z,0
2022-12-19T01:27:54.204Z,0
2022-12-19T01:28:54.199Z,0
2022-12-19T01:29:59.779Z,0
2022-12-19T01:30:56.043Z,0
2022-12-19T01:31:54.733Z,0
2022-12-19T01:32:54.506Z,0
2022-12-19T01:33:59.122Z,0
2022-12-19T01:34:54.266Z,0
2022-12-19T01:35:54.549Z,0
2022-12-19T01:36:54.300Z,0
2022-12-19T01:38:08.673Z,0
2022-12-19T01:38:54.312Z,0
2022-12-19T01:39:54.596Z,0
2022-12-19T01:40:54.725Z,0
2022-12-19T01:41:54.346Z,0
2022-12-19T01:42:54.746Z,0
2022-12-19T01:43:54.642Z,0
2022-12-19T01:44:54.638Z,0
2022-12-19T01:45:55.024Z,0
2022-12-19T01:46:54.415Z,0
2022-12-19T01:47:59.507Z,0
2022-12-19T01:48:54.703Z,0
2022-12-19T01:49:54.465Z,0
2022-12-19T01:51:07.999Z,0
2022-12-19T01:51:54.734Z,0
2022-12-19T01:52:54.217Z,0
2022-12-19T01:53:56.407Z,0
2022-12-19T01:54:54.756Z,0
2022-12-19T01:55:54.260Z,0
2022-12-19T01:56:54.623Z,0
2022-12-19T01:57:54.789Z,0
2022-12-19T01:59:08.911Z,0
2022-12-19T01:59:54.992Z,0
2022-12-19T02:00:55.130Z,0
2022-12-19T02:01:59.874Z,0
2022-12-19T02:02:55.591Z,0
2022-12-19T02:03:54.850Z,0
2022-12-19T02:04:54.653Z,0
2022-12-19T02:05:54.384Z,0
2022-12-19T02:06:54.416Z,0
2022-12-19T02:07:54.893Z,0
2022-12-19T02:08:54.924Z,0
2022-12-19T02:10:04.083Z,0
2022-12-19T02:10:54.668Z,0
2022-12-19T02:11:54.969Z,0
2022-12-19T02:12:55.110Z,0
2022-12-19T02:13:54.721Z,0
2022-12-19T02:15:02.323Z,0
2022-12-19T02:15:54.995Z,0
2022-12-19T02:16:55.351Z,0
2022-12-19T02:17:59.890Z,0
2022-12-19T02:18:54.800Z,0
2022-12-19T02:19:54.844Z,0
2022-12-19T02:20:55.056Z,0
2022-12-19T02:21:59.675Z,0
2022-12-19T02:22:54.823Z,0
2022-12-19T02:23:55.093Z,0
2022-12-19T02:24:55.116Z,0
2022-12-19T02:26:01.820Z,0
2022-12-19T02:26:55.472Z,0
2022-12-19T02:27:55.022Z,0
2022-12-19T02:28:55.275Z,0
2022-12-19T02:29:55.176Z,0
2022-12-19T02:30:55.069Z,0
2022-12-19T02:31:55.078Z,0
2022-12-19T02:32:55.375Z,0
2022-12-19T02:33:58.791Z,0
2022-12-19T02:34:54.975Z,0
2022-12-19T02:35:54.778Z,0
2022-12-19T02:36:59.097Z,0
2022-12-19T02:38:00.586Z,0
2022-12-19T02:38:55.042Z,0
2022-12-19T02:39:55.316Z,0
2022-12-19T02:41:00.763Z,0
2022-12-19T02:41:55.575Z,0
2022-12-19T02:42:55.369Z,0
2022-12-19T02:44:03.392Z,0
2022-12-19T02:44:55.231Z,0
2022-12-19T02:45:55.689Z,0
2022-12-19T02:46:55.507Z,0
2022-12-19T02:47:55.154Z,0
2022-12-19T02:48:55.156Z,0
2022-12-19T02:49:55.418Z,0
2022-12-19T02:50:57.487Z,0
2022-12-19T02:51:55.463Z,0
2022-12-19T02:52:55.464Z,0
2022-12-19T02:53:55.207Z,0
2022-12-19T02:54:54.977Z,0
2022-12-19T02:55:55.252Z,0
2022-12-19T02:56:55.506Z,0
2022-12-19T02:57:55.780Z,0
2022-12-19T02:58:55.530Z,0
2022-12-19T02:59:58.522Z,0
2022-12-19T03:00:55.774Z,0
2022-12-19T03:01:56.191Z,0
2022-12-19T03:03:07.831Z,0
2022-12-19T03:03:55.592Z,0
2022-12-19T03:04:55.615Z,0
2022-12-19T03:05:55.623Z,0
2022-12-19T03:06:56.081Z,0
2022-12-19T03:07:55.371Z,0
2022-12-19T03:08:55.174Z,0
2022-12-19T03:09:55.435Z,0
2022-12-19T03:10:55.689Z,0
2022-12-19T03:11:55.743Z,0
2022-12-19T03:12:55.448Z,0
2022-12-19T03:13:55.959Z,0
2022-12-19T03:14:55.474Z,0
2022-12-19T03:15:55.752Z,0
2022-12-19T03:16:56.175Z,0
2022-12-19T03:17:55.226Z,0
2022-12-19T03:18:55.869Z,0
2022-12-19T03:19:55.543Z,0
2022-12-19T03:20:55.535Z,0
2022-12-19T03:21:56.051Z,0
2022-12-19T03:22:55.550Z,0
2022-12-19T03:23:55.575Z,0
2022-12-19T03:24:55.842Z,0
2022-12-19T03:25:55.601Z,0
2022-12-19T03:26:56.319Z,0
2022-12-19T03:27:55.882Z,0
2022-12-19T03:28:55.660Z,0
2022-12-19T03:29:56.145Z,0
2022-12-19T03:30:55.893Z,0
2022-12-19T03:31:55.967Z,0
2022-12-19T03:32:55.812Z,0
2022-12-19T03:33:55.953Z,0
2022-12-19T03:34:56.049Z,0
2022-12-19T03:35:55.721Z,0
2022-12-19T03:36:55.476Z,0
2022-12-19T03:37:55.996Z,0
2022-12-19T03:38:56.025Z,0
2022-12-19T03:39:56.233Z,0
2022-12-19T03:40:56.034Z,0
2022-12-19T03:41:55.609Z,0
2022-12-19T03:42:56.718Z,0
2022-12-19T03:43:56.705Z,0
2022-12-19T03:44:56.066Z,0
2022-12-19T03:45:56.783Z,0
2022-12-19T03:46:56.111Z,0
2022-12-19T03:47:56.230Z,0
2022-12-19T03:48:56.338Z,0
2022-12-19T03:49:55.914Z,0
2022-12-19T03:50:56.302Z,0
2022-12-19T03:52:01.978Z,0
2022-12-19T03:52:55.930Z,0
2022-12-19T03:53:56.209Z,0
2022-12-19T03:54:55.428Z,0
2022-12-19T03:55:55.977Z,0
2022-12-19T03:56:58.951Z,0
2022-12-19T03:57:56.251Z,0
2022-12-19T03:58:55.995Z,0
2022-12-19T03:59:56.298Z,0
2022-12-19T04:00:56.311Z,0
2022-12-19T04:01:56.869Z,0
2022-12-19T04:02:56.318Z,0
2022-12-19T04:03:56.456Z,0
2022-12-19T04:04:56.188Z,0
2022-12-19T04:05:56.353Z,0
2022-12-19T04:06:56.470Z,0
2022-12-19T04:07:56.361Z,0
2022-12-19T04:08:55.614Z,0
2022-12-19T04:09:56.407Z,0
2022-12-19T04:10:56.149Z,0
2022-12-19T04:11:56.642Z,0
2022-12-19T04:12:55.898Z,0
2022-12-19T04:13:56.428Z,0
2022-12-19T04:14:56.448Z,0
2022-12-19T04:15:56.564Z,0
2022-12-19T04:16:56.509Z,0
2022-12-19T04:17:56.745Z,0
2022-12-19T04:18:56.236Z,0
2022-12-19T04:19:56.492Z,0
2022-12-19T04:20:56.649Z,0
2022-12-19T04:21:56.834Z,0
2022-12-19T04:22:56.400Z,0
2022-12-19T04:23:56.289Z,0
2022-12-19T04:24:56.581Z,0
2022-12-19T04:25:56.603Z,0
2022-12-19T04:26:56.992Z,0
2022-12-19T04:27:56.614Z,0
2022-12-19T04:28:56.612Z,0
2022-12-19T04:29:56.631Z,0
2022-12-19T04:30:56.925Z,0
2022-12-19T04:31:56.643Z,0
2022-12-19T04:32:56.652Z,0
2022-12-19T04:33:56.941Z,0
2022-12-19T04:34:55.902Z,0
2022-12-19T04:35:56.427Z,0
2022-12-19T04:36:56.601Z,0
2022-12-19T04:37:56.735Z,0
2022-12-19T04:38:56.839Z,0
2022-12-19T04:39:56.743Z,0
2022-12-19T04:40:56.821Z,0
2022-12-19T04:41:57.774Z,0
2022-12-19T04:42:56.767Z,0
2022-12-19T04:43:56.800Z,0
2022-12-19T04:44:56.544Z,0
2022-12-19T04:46:06.996Z,0
2022-12-19T04:46:57.225Z,0
2022-12-19T04:47:56.834Z,0
2022-12-19T04:48:56.580Z,0
2022-12-19T04:49:56.886Z,0
2022-12-19T04:50:56.873Z,0
2022-12-19T04:51:57.027Z,0
2022-12-19T04:53:02.165Z,0
2022-12-19T04:53:56.642Z,0
2022-12-19T04:54:57.029Z,0
2022-12-19T04:55:56.944Z,0
2022-12-19T04:56:56.963Z,0
2022-12-19T04:57:56.956Z,0
2022-12-19T04:58:56.707Z,0
2022-12-19T04:59:56.746Z,0
2022-12-19T05:00:57.000Z,0
2022-12-19T05:01:57.264Z,0
2022-12-19T05:02:57.697Z,0
2022-12-19T05:04:09.028Z,0
2022-12-19T05:04:56.519Z,0
2022-12-19T05:05:57.290Z,0
2022-12-19T05:06:57.078Z,0
2022-12-19T05:07:57.090Z,0
2022-12-19T05:08:57.209Z,0
2022-12-19T05:09:57.109Z,0
2022-12-19T05:10:57.246Z,0
2022-12-19T05:11:57.157Z,0
2022-12-19T05:12:57.132Z,0
2022-12-19T05:13:57.329Z,0
2022-12-19T05:14:57.148Z,0
2022-12-19T05:15:57.387Z,0
2022-12-19T05:17:04.203Z,0
2022-12-19T05:17:57.193Z,0
2022-12-19T05:18:57.211Z,0
2022-12-19T05:19:57.018Z,0
2022-12-19T05:20:56.709Z,0
2022-12-19T05:21:57.494Z,0
2022-12-19T05:22:57.280Z,0
2022-12-19T05:23:57.275Z,0
2022-12-19T05:24:57.403Z,0
2022-12-19T05:25:57.315Z,0
2022-12-19T05:26:57.637Z,0
2022-12-19T05:27:57.307Z,0
2022-12-19T05:28:57.329Z,0
2022-12-19T05:29:57.339Z,0
2022-12-19T05:30:59.668Z,0
2022-12-19T05:31:57.438Z,0
2022-12-19T05:32:57.375Z,0
2022-12-19T05:33:57.424Z,0
2022-12-19T05:34:57.432Z,0
2022-12-19T05:35:57.407Z,0
2022-12-19T05:36:57.194Z,0
2022-12-19T05:37:57.686Z,0
2022-12-19T05:38:56.674Z,0
2022-12-19T05:39:57.459Z,0
2022-12-19T05:40:57.577Z,0
2022-12-19T05:41:57.509Z,0
2022-12-19T05:42:57.635Z,0
2022-12-19T05:43:57.011Z,0
2022-12-19T05:44:57.511Z,0
2022-12-19T05:45:57.568Z,0
2022-12-19T05:46:57.928Z,0
2022-12-19T05:48:03.470Z,0
2022-12-19T05:48:58.477Z,0
2022-12-19T05:49:57.595Z,0
2022-12-19T05:50:57.586Z,0
2022-12-19T05:51:57.625Z,0
2022-12-19T05:52:58.027Z,0
2022-12-19T05:53:57.872Z,0
2022-12-19T05:54:57.424Z,0
2022-12-19T05:55:57.667Z,0
2022-12-19T05:56:57.801Z,0
2022-12-19T05:57:57.422Z,0
2022-12-19T05:58:57.829Z,0
2022-12-19T05:59:57.462Z,0
2022-12-19T06:01:03.290Z,0
2022-12-19T06:01:58.228Z,0
2022-12-19T06:02:58.142Z,0
2022-12-19T06:03:57.789Z,0
2022-12-19T06:04:57.534Z,0
2022-12-19T06:05:57.245Z,0
2022-12-19T06:06:57.850Z,0
2022-12-19T06:07:57.783Z,0
2022-12-19T06:08:57.843Z,0
2022-12-19T06:09:58.049Z,0
2022-12-19T06:10:57.565Z,0
2022-12-19T06:11:58.288Z,0
2022-12-19T06:12:58.018Z,0
2022-12-19T06:13:57.617Z,0
2022-12-19T06:14:57.755Z,0
2022-12-19T06:15:57.867Z,0
2022-12-19T06:16:58.278Z,0
2022-12-19T06:17:57.657Z,0
2022-12-19T06:18:58.016Z,0
2022-12-19T06:19:57.919Z,0
2022-12-19T06:20:57.949Z,0
2022-12-19T06:21:57.642Z,0
2022-12-19T06:22:57.962Z,0
2022-12-19T06:23:57.723Z,0
2022-12-19T06:24:57.987Z,0
2022-12-19T06:25:58.243Z,0
2022-12-19T06:26:58.684Z,0
2022-12-19T06:27:58.073Z,0
2022-12-19T06:28:58.205Z,0
2022-12-19T06:29:58.062Z,0
2022-12-19T06:30:57.978Z,0
2022-12-19T06:31:58.123Z,0
2022-12-19T06:32:58.146Z,0
2022-12-19T06:33:57.840Z,0
2022-12-19T06:35:13.407Z,0
2022-12-19T06:35:58.131Z,0
2022-12-19T06:36:57.878Z,0
2022-12-19T06:38:05.550Z,0
2022-12-19T06:38:58.190Z,0
2022-12-19T06:39:57.928Z,0
2022-12-19T06:40:58.171Z,0
2022-12-19T06:41:58.492Z,0
2022-12-19T06:42:58.303Z,0
2022-12-19T06:44:00.740Z,0
2022-12-19T06:44:59.101Z,0
2022-12-19T06:45:58.214Z,0
2022-12-19T06:46:58.372Z,0
2022-12-19T06:47:58.474Z,0
2022-12-19T06:48:58.015Z,0
2022-12-19T06:49:58.075Z,0
2022-12-19T06:50:58.298Z,0
2022-12-19T06:51:58.042Z,0
2022-12-19T06:52:58.684Z,0
2022-12-19T06:53:58.072Z,0
2022-12-19T06:54:58.091Z,0
2022-12-19T06:55:58.118Z,0
2022-12-19T06:56:58.367Z,0
2022-12-19T06:57:58.544Z,0
2022-12-19T06:58:58.134Z,0
2022-12-19T06:59:58.398Z,0
2022-12-19T07:00:58.485Z,0
2022-12-19T07:01:58.784Z,0
2022-12-19T07:02:59.154Z,0
2022-12-19T07:03:58.455Z,0
2022-12-19T07:04:58.235Z,0
2022-12-19T07:05:58.228Z,0
2022-12-19T07:06:58.481Z,0
2022-12-19T07:07:58.816Z,0
2022-12-19T07:08:58.259Z,0
2022-12-19T07:09:58.277Z,0
2022-12-19T07:10:58.312Z,0
2022-12-19T07:11:58.571Z,0
2022-12-19T07:12:58.305Z,0
2022-12-19T07:13:58.534Z,0
2022-12-19T07:15:00.761Z,0
2022-12-19T07:15:58.672Z,0
2022-12-19T07:16:58.757Z,0
2022-12-19T07:17:58.622Z,0
2022-12-19T07:18:58.790Z,0
2022-12-19T07:19:58.706Z,0
2022-12-19T07:20:58.388Z,0
2022-12-19T07:21:58.659Z,0
2022-12-19T07:22:59.368Z,0
2022-12-19T07:23:58.705Z,0
2022-12-19T07:24:58.714Z,0
2022-12-19T07:25:58.703Z,0
2022-12-19T07:26:59.208Z,0
2022-12-19T07:27:59.355Z,0
2022-12-19T07:28:58.502Z,0
2022-12-19T07:29:59.022Z,0
2022-12-19T07:30:58.524Z,0
2022-12-19T07:31:59.084Z,0
2022-12-19T07:32:58.838Z,0
2022-12-19T07:33:58.562Z,0
2022-12-19T07:34:58.933Z,0
2022-12-19T07:35:58.869Z,0
2022-12-19T07:36:58.863Z,0
2022-12-19T07:37:58.853Z,0
2022-12-19T07:38:58.397Z,0
2022-12-19T07:39:58.639Z,0
2022-12-19T07:40:58.917Z,0
2022-12-19T07:41:58.646Z,0
2022-12-19T07:42:58.669Z,0
2022-12-19T07:43:58.917Z,0
2022-12-19T07:44:58.936Z,0
2022-12-19T07:45:59.525Z,0
2022-12-19T07:46:58.711Z,0
2022-12-19T07:47:58.972Z,0
2022-12-19T07:48:59.151Z,0
2022-12-19T07:49:58.747Z,0
2022-12-19T07:50:59.149Z,0
2022-12-19T07:51:59.034Z,0
2022-12-19T07:52:58.784Z,0
2022-12-19T07:53:59.067Z,0
2022-12-19T07:54:59.074Z,0
2022-12-19T07:55:58.834Z,0
2022-12-19T07:56:59.223Z,0
2022-12-19T07:57:58.869Z,0
2022-12-19T07:58:59.110Z,0
2022-12-19T07:59:59.157Z,0
2022-12-19T08:00:59.420Z,0
2022-12-19T08:02:00.472Z,0
2022-12-19T08:02:59.735Z,0
2022-12-19T08:03:58.926Z,0
2022-12-19T08:04:59.290Z,0
2022-12-19T08:05:58.973Z,4
2022-12-19T08:06:59.324Z,4
2022-12-19T08:07:59.217Z,4
2022-12-19T08:08:59.582Z,0
2022-12-19T08:09:59.261Z,0
2022-12-19T08:10:58.991Z,0
2022-12-19T08:11:59.275Z,0
2022-12-19T08:12:59.014Z,0
2022-12-19T08:13:59.762Z,0
2022-12-19T08:15:04.393Z,4
2022-12-19T08:15:59.062Z,4
2022-12-19T08:17:27.578Z,4
2022-12-19T08:17:59.487Z,4
2022-12-19T08:18:59.435Z,4
2022-12-19T08:19:58.835Z,4
2022-12-19T08:20:59.501Z,4
2022-12-19T08:21:59.386Z,4
2022-12-19T08:22:59.532Z,4
2022-12-19T08:23:59.567Z,4
2022-12-19T08:24:59.425Z,8
2022-12-19T08:25:59.181Z,4
2022-12-19T08:26:59.596Z,4
2022-12-19T08:27:59.457Z,8
2022-12-19T08:28:59.550Z,4
2022-12-19T08:29:59.478Z,4
2022-12-19T08:30:59.748Z,4
2022-12-19T08:31:59.254Z,4
2022-12-19T08:32:59.520Z,8
2022-12-19T08:34:00.105Z,8
2022-12-19T08:34:59.600Z,8
2022-12-19T08:35:59.566Z,4
2022-12-19T08:36:59.700Z,4
2022-12-19T08:37:59.612Z,8
2022-12-19T08:39:00.413Z,4
2022-12-19T08:39:59.591Z,4
2022-12-19T08:40:59.376Z,4
2022-12-19T08:41:59.385Z,4
2022-12-19T08:42:59.396Z,4
2022-12-19T08:43:59.677Z,4
2022-12-19T08:44:59.440Z,4
2022-12-19T08:46:00.034Z,4
2022-12-19T08:46:59.453Z,4
2022-12-19T08:47:59.726Z,4
2022-12-19T08:48:59.929Z,4
2022-12-19T08:49:59.760Z,4
2022-12-19T08:50:59.788Z,4
2022-12-19T08:51:59.812Z,4
2022-12-19T08:52:59.301Z,8
2022-12-19T08:53:59.786Z,8
2022-12-19T08:54:59.832Z,8
2022-12-19T08:55:59.571Z,8
2022-12-19T08:56:59.827Z,8
2022-12-19T08:57:59.587Z,8
2022-12-19T08:58:59.838Z,8
2022-12-19T09:00:02.582Z,12
2022-12-19T09:01:10.697Z,8
2022-12-19T09:02:01.124Z,8
2022-12-19T09:03:00.826Z,8
2022-12-19T09:06:18.969Z,8
2022-12-19T09:06:30.142Z,8
2022-12-19T09:07:29.722Z,8
2022-12-19T09:08:30.132Z,4
2022-12-19T09:09:29.754Z,8
2022-12-19T09:10:30.302Z,8
2022-12-19T09:11:30.112Z,8
2022-12-19T09:12:30.029Z,4
2022-12-19T09:13:30.130Z,8
2022-12-19T09:14:29.795Z,8
2022-12-19T09:15:29.792Z,4
2022-12-19T09:16:29.939Z,8
2022-12-19T09:17:30.460Z,8
2022-12-19T09:18:31.635Z,8
2022-12-19T09:19:29.861Z,8
2022-12-19T09:20:31.214Z,8
2022-12-19T09:21:30.169Z,8
2022-12-19T09:22:36.402Z,8
2022-12-19T09:23:29.930Z,8
2022-12-19T09:24:30.393Z,8
2022-12-19T09:25:29.947Z,8
2022-12-19T09:26:36.037Z,8
2022-12-19T09:27:30.253Z,8
2022-12-19T09:28:35.021Z,12
2022-12-19T09:29:35.631Z,8
2022-12-19T09:30:32.363Z,8
2022-12-19T09:31:30.618Z,12
2022-12-19T09:32:30.303Z,8
2022-12-19T09:33:30.168Z,8
2022-12-19T09:34:42.743Z,8
2022-12-19T09:35:35.670Z,8
2022-12-19T09:36:30.332Z,8
2022-12-19T09:37:30.514Z,12
2022-12-19T09:38:31.217Z,12
2022-12-19T09:39:30.102Z,12
2022-12-19T09:40:30.736Z,12
2022-12-19T09:41:30.135Z,16
2022-12-19T09:42:30.353Z,16
2022-12-19T09:43:30.430Z,16
2022-12-19T09:44:30.417Z,16
2022-12-19T09:45:38.808Z,12
2022-12-19T09:46:30.488Z,16
2022-12-19T09:47:30.474Z,12
2022-12-19T09:48:31.830Z,16
2022-12-19T09:49:30.213Z,16
2022-12-19T09:50:30.275Z,12
2022-12-19T09:51:30.793Z,12
2022-12-19T09:52:36.659Z,16
2022-12-19T09:53:30.468Z,16
2022-12-19T09:54:30.290Z,16
2022-12-19T09:55:30.298Z,16
2022-12-19T09:56:33.986Z,20
2022-12-19T09:57:30.318Z,20
2022-12-19T09:58:30.724Z,20
2022-12-19T09:59:54.430Z,20
2022-12-19T10:00:30.641Z,24
2022-12-19T10:01:31.127Z,28
2022-12-19T10:02:31.886Z,24
2022-12-19T10:03:38.728Z,28
2022-12-19T10:04:31.865Z,28
2022-12-19T10:08:08.633Z,28
2022-12-19T10:08:21.331Z,28
2022-12-19T10:12:59.457Z,28
2022-12-19T10:13:25.309Z,32
2022-12-19T10:14:21.256Z,28
2022-12-19T10:15:20.788Z,28
2022-12-19T10:16:20.901Z,28
2022-12-19T10:17:36.011Z,28
2022-12-19T10:18:20.571Z,28
2022-12-19T10:19:20.790Z,24
2022-12-19T10:20:20.616Z,24
2022-12-19T10:21:20.558Z,24
2022-12-19T10:22:26.217Z,24
2022-12-19T10:23:20.737Z,20
2022-12-19T10:24:20.990Z,20
2022-12-19T10:25:20.635Z,20
2022-12-19T10:26:20.972Z,20
2022-12-19T10:27:21.029Z,20
2022-12-19T10:28:21.062Z,20
2022-12-19T10:29:20.915Z,24
2022-12-19T10:30:20.837Z,24
2022-12-19T10:31:29.217Z,24
2022-12-19T10:32:21.298Z,24
2022-12-19T10:33:28.043Z,28
2022-12-19T10:34:21.950Z,24
2022-12-19T10:35:21.210Z,24
2022-12-19T10:36:27.835Z,24
2022-12-19T10:37:52.052Z,24
2022-12-19T10:38:22.160Z,24
2022-12-19T10:39:22.472Z,24
2022-12-19T10:40:35.452Z,24
2022-12-19T10:41:22.325Z,24
2022-12-19T10:42:22.560Z,24
2022-12-19T10:43:46.562Z,24
2022-12-19T10:44:22.637Z,28
2022-12-19T10:45:22.654Z,28
2022-12-19T10:46:23.103Z,28
2022-12-19T10:47:22.486Z,24
2022-12-19T10:48:32.730Z,28
2022-12-19T10:49:22.427Z,24
2022-12-19T10:50:22.617Z,28
2022-12-19T10:51:22.714Z,28
2022-12-19T10:52:23.708Z,28
2022-12-19T10:53:22.818Z,24
2022-12-19T10:54:22.714Z,28
2022-12-19T10:55:22.629Z,24
2022-12-19T10:56:24.688Z,24
2022-12-19T10:57:22.645Z,24
2022-12-19T10:58:22.908Z,24
2022-12-19T10:59:22.978Z,24
2022-12-19T11:00:22.532Z,24
2022-12-19T11:01:23.658Z,28
2022-12-19T11:02:23.119Z,28
2022-12-19T11:03:26.976Z,28
2022-12-19T11:04:22.629Z,32
2022-12-19T11:05:23.479Z,28
2022-12-19T11:06:22.683Z,28
2022-12-19T11:07:24.551Z,32
2022-12-19T11:08:22.715Z,32
2022-12-19T11:09:23.011Z,32
2022-12-19T11:32:55.669Z,24
2022-12-19T11:33:06.638Z,28
2022-12-19T11:34:06.491Z,28
2022-12-19T11:35:06.166Z,28
2022-12-19T11:36:06.142Z,28
2022-12-19T11:37:06.420Z,32
2022-12-19T11:38:06.466Z,36
2022-12-19T11:39:06.496Z,36
2022-12-19T11:40:06.490Z,36
2022-12-19T11:41:06.186Z,36
2022-12-19T11:42:06.257Z,36
2022-12-19T11:43:51.583Z,32
2022-12-19T11:44:06.245Z,28
2022-12-19T11:45:06.373Z,32
2022-12-19T11:46:06.504Z,28
2022-12-19T11:47:07.178Z,28
2022-12-19T11:48:06.415Z,24
2022-12-19T11:49:06.323Z,24
2022-12-19T11:50:06.706Z,24
2022-12-19T11:51:09.368Z,24
2022-12-19T11:52:06.637Z,24
2022-12-19T11:53:22.185Z,24
2022-12-19T11:54:06.092Z,28
2022-12-19T11:55:06.215Z,24
2022-12-19T11:56:16.028Z,24
2022-12-19T11:57:06.722Z,24
2022-12-19T11:58:06.684Z,24
2022-12-19T11:59:06.726Z,28
2022-12-19T12:00:12.069Z,28
2022-12-19T12:01:06.471Z,28
2022-12-19T12:02:07.138Z,24
2022-12-19T12:03:07.086Z,28
2022-12-19T12:04:10.278Z,28
2022-12-19T12:05:06.933Z,24
2022-12-19T12:06:06.668Z,24
2022-12-19T12:13:38.142Z,24
2022-12-19T12:38:33.069Z,12
2022-12-19T12:38:46.140Z,12
2022-12-19T12:39:44.474Z,16
2022-12-19T12:40:44.249Z,12
2022-12-19T12:41:48.113Z,12
2022-12-19T12:42:44.255Z,12
2022-12-19T12:43:44.792Z,12
2022-12-19T12:44:52.462Z,12
2022-12-19T12:45:45.109Z,8
2022-12-19T12:46:44.803Z,12
2022-12-19T12:47:44.651Z,12
2022-12-19T12:48:44.881Z,12
2022-12-19T12:49:46.162Z,12
2022-12-19T12:50:47.476Z,12
2022-12-19T12:51:44.961Z,12
2022-12-19T12:52:44.943Z,12
2022-12-19T12:53:44.935Z,12
2022-12-19T12:54:44.928Z,12
2022-12-19T12:55:44.671Z,12
2022-12-19T12:56:44.714Z,12
2022-12-19T12:57:45.015Z,16
2022-12-19T12:58:44.722Z,12
2022-12-19T12:59:44.449Z,8
2022-12-19T13:00:45.079Z,12
2022-12-19T13:01:45.774Z,8
2022-12-19T13:02:47.020Z,8
2022-12-19T13:03:44.891Z,8
2022-12-19T13:04:45.256Z,12
2022-12-19T13:05:45.141Z,12
2022-12-19T13:06:44.563Z,8
2022-12-19T13:07:45.911Z,12
2022-12-19T13:08:45.135Z,12
2022-12-19T13:09:44.862Z,8
2022-12-19T13:10:45.175Z,8
2022-12-19T13:11:45.127Z,8
2022-12-19T13:12:44.978Z,12
2022-12-19T13:13:44.641Z,8
2022-12-19T13:14:45.205Z,8
2022-12-19T13:15:44.933Z,12
2022-12-19T13:16:45.063Z,8
2022-12-19T13:17:47.792Z,8
2022-12-19T13:18:45.503Z,8
2022-12-19T13:19:45.009Z,12
2022-12-19T13:20:44.780Z,8
2022-12-19T13:21:45.211Z,12
2022-12-19T13:22:45.013Z,12
2022-12-19T13:23:44.811Z,16
2022-12-19T13:24:45.058Z,12
2022-12-19T13:25:44.796Z,12
2022-12-19T13:26:45.071Z,16
2022-12-19T13:27:44.907Z,12
2022-12-19T13:28:45.413Z,12
2022-12-19T13:29:45.105Z,16
2022-12-19T13:31:28.382Z,12
2022-12-19T13:31:45.595Z,12
2022-12-19T13:32:46.386Z,12
2022-12-19T13:33:45.165Z,12
2022-12-19T13:37:06.433Z,12
2022-12-19T13:40:32.617Z,12
2022-12-19T13:41:16.449Z,8
2022-12-19T13:42:16.454Z,8
2022-12-19T13:43:18.045Z,8
2022-12-19T13:44:16.629Z,8
2022-12-19T13:45:16.484Z,8
2022-12-19T13:46:16.854Z,8
2022-12-19T13:47:24.003Z,8
2022-12-19T13:48:17.933Z,8
2022-12-19T13:49:17.115Z,8
2022-12-19T13:50:16.839Z,12
2022-12-19T13:51:16.853Z,12
2022-12-19T13:52:16.598Z,12
2022-12-19T13:53:17.923Z,12
2022-12-19T13:54:16.592Z,12
2022-12-19T13:55:16.640Z,12
2022-12-19T13:56:16.760Z,8
2022-12-19T13:57:17.082Z,8
2022-12-19T13:58:21.341Z,8
2022-12-19T13:59:16.683Z,8
2022-12-19T14:00:16.765Z,8
2022-12-19T14:01:29.379Z,4
2022-12-19T14:02:17.930Z,8
2022-12-19T14:03:17.921Z,8
2022-12-19T14:04:17.243Z,8
2022-12-19T14:05:16.479Z,8
2022-12-19T14:06:27.654Z,8
2022-12-19T14:07:38.436Z,8
2022-12-19T14:08:26.087Z,12
2022-12-19T14:14:12.555Z,12
2022-12-19T14:14:35.449Z,12
2022-12-19T14:15:29.657Z,12
2022-12-19T14:16:51.886Z,12
2022-12-19T14:17:29.574Z,12
2022-12-19T14:18:52.843Z,12
2022-12-19T14:19:29.622Z,12
2022-12-19T14:22:28.736Z,12
2022-12-19T14:22:38.606Z,12
2022-12-19T14:23:51.388Z,12
2022-12-19T14:24:38.645Z,8
2022-12-19T14:28:34.628Z,8
2022-12-19T14:28:47.615Z,8
2022-12-19T14:30:37.250Z,8
2022-12-19T14:34:47.087Z,8
2022-12-19T14:36:32.430Z,8
2022-12-19T14:39:32.646Z,4
2022-12-19T14:39:42.569Z,4
2022-12-19T14:41:14.961Z,8
2022-12-19T14:41:42.582Z,8
2022-12-19T14:57:09.863Z,4
2022-12-19T14:59:02.329Z,4
2022-12-19T15:01:25.290Z,4
2022-12-19T15:01:37.226Z,4
2022-12-19T15:02:41.720Z,4
2022-12-19T15:03:37.112Z,0
2022-12-19T15:05:01.296Z,0
2022-12-19T15:05:36.469Z,0
2022-12-19T15:07:17.346Z,4
2022-12-19T15:07:35.999Z,4
2022-12-19T15:12:04.374Z,0
2022-12-19T15:15:07.202Z,0
2022-12-19T15:15:56.130Z,0
2022-12-19T15:16:55.934Z,0
2022-12-19T15:17:56.206Z,0
2022-12-19T15:18:56.218Z,0
2022-12-19T15:19:56.274Z,0
2022-12-19T15:20:56.386Z,0
2022-12-19T15:21:56.260Z,0
2022-12-19T15:22:56.270Z,0
2022-12-19T15:23:56.042Z,0
2022-12-19T15:24:56.328Z,0
2022-12-19T15:26:14.286Z,0
2022-12-19T15:26:56.391Z,0
2022-12-19T15:27:56.077Z,0
2022-12-19T15:28:56.174Z,0
2022-12-19T15:29:56.126Z,0
2022-12-19T15:30:56.675Z,0
2022-12-19T15:31:56.936Z,0
2022-12-19T15:32:56.416Z,0
2022-12-19T15:34:53.454Z,0
2022-12-19T15:35:02.882Z,0
2022-12-19T15:36:03.364Z,0
2022-12-19T15:37:03.760Z,0
2022-12-19T15:38:03.615Z,0
2022-12-19T15:39:03.425Z,0
2022-12-19T15:40:03.695Z,0
2022-12-19T15:41:05.260Z,0
2022-12-19T15:42:03.750Z,0
2022-12-19T15:43:03.453Z,0
2022-12-19T15:44:13.049Z,0
2022-12-19T15:45:03.504Z,0
2022-12-19T15:46:03.926Z,0
2022-12-19T15:47:04.429Z,0
2022-12-19T15:48:03.780Z,0
2022-12-19T15:49:03.803Z,0
2022-12-19T15:50:04.088Z,0
2022-12-19T15:51:03.802Z,0
2022-12-19T15:52:03.601Z,0
2022-12-19T15:53:03.828Z,0
2022-12-19T15:54:53.955Z,0
2022-12-19T15:55:04.103Z,0
2022-12-19T15:56:04.732Z,0
2022-12-19T15:57:03.913Z,0
2022-12-19T15:58:04.205Z,0
2022-12-19T15:59:03.937Z,0
2022-12-19T16:00:04.043Z,0
2022-12-19T16:01:04.186Z,0
2022-12-19T16:02:05.068Z,0
2022-12-19T16:03:32.379Z,0
2022-12-19T16:04:05.762Z,0
2022-12-19T16:05:11.233Z,0
2022-12-19T16:06:04.290Z,0
2022-12-19T16:07:03.733Z,0
2022-12-19T16:08:04.293Z,0
2022-12-19T16:09:04.318Z,0
2022-12-19T16:10:04.157Z,0
2022-12-19T16:11:08.863Z,0
2022-12-19T16:12:04.107Z,0
2022-12-19T16:13:04.344Z,0
2022-12-19T16:14:04.130Z,0
2022-12-19T16:15:04.410Z,0
2022-12-19T16:16:10.973Z,0
2022-12-19T16:17:04.968Z,0
2022-12-19T16:18:04.456Z,0